createdAt,value
2018-05-14T00:01:09.866Z,96254
2018-05-14T00:03:36.531Z,96255
2018-05-14T00:06:03.211Z,96254
2018-05-14T00:08:30.076Z,96254
2018-05-14T00:10:57.499Z,96252
2018-05-14T00:13:24.182Z,96250
2018-05-14T00:15:51.606Z,96247
2018-05-14T00:18:18.310Z,96249
2018-05-14T00:20:44.998Z,96242
2018-05-14T00:23:11.847Z,96244
2018-05-14T00:25:39.275Z,96236
2018-05-14T00:28:06.124Z,96239
2018-05-14T00:30:32.958Z,96247
2018-05-14T00:32:59.661Z,96254
2018-05-14T00:35:26.333Z,96259
2018-05-14T00:37:53.111Z,96269
2018-05-14T00:40:20.531Z,96281
2018-05-14T00:42:47.203Z,96281
2018-05-14T00:45:14.671Z,96276
2018-05-14T00:47:42.082Z,96270
2018-05-14T00:50:08.841Z,96261
2018-05-14T00:52:35.533Z,96263
2018-05-14T00:55:16.918Z,96260
2018-05-14T00:57:44.369Z,96254
2018-05-14T01:00:11.096Z,96248
2018-05-14T01:02:37.760Z,96242
2018-05-14T01:05:04.516Z,96248
2018-05-14T01:07:32.016Z,96244
2018-05-14T01:10:04.250Z,96231
2018-05-14T01:12:31.154Z,96228
2018-05-14T01:14:57.869Z,96229
2018-05-14T01:17:25.894Z,96228
2018-05-14T01:19:55.639Z,96226
2018-05-14T01:22:22.290Z,96224
2018-05-14T01:24:55.810Z,96230
2018-05-14T01:27:22.524Z,96230
2018-05-14T01:29:50.202Z,96231
2018-05-14T01:32:16.877Z,96221
2018-05-14T01:34:43.601Z,96222
2018-05-14T01:37:10.385Z,96217
2018-05-14T01:39:37.034Z,96217
2018-05-14T01:42:03.770Z,96215
2018-05-14T01:44:30.606Z,96220
2018-05-14T01:46:57.268Z,96224
2018-05-14T01:49:24.719Z,96228
2018-05-14T01:51:51.447Z,96230
2018-05-14T01:54:18.122Z,96234
2018-05-14T01:56:44.844Z,96235
2018-05-14T01:59:12.245Z,96235
2018-05-14T02:01:38.922Z,96234
2018-05-14T02:04:05.783Z,96231
2018-05-14T02:06:37.487Z,96235
2018-05-14T02:09:04.363Z,96239
2018-05-14T02:11:31.088Z,96230
2018-05-14T02:13:57.750Z,96226
2018-05-14T02:16:24.623Z,96230
2018-05-14T02:18:51.387Z,96219
2018-05-14T02:21:18.032Z,96218
2018-05-14T02:23:44.709Z,96225
2018-05-14T02:26:12.274Z,96218
2018-05-14T02:28:39.107Z,96220
2018-05-14T02:31:05.835Z,96215
2018-05-14T02:33:32.570Z,96215
2018-05-14T02:35:59.218Z,96213
2018-05-14T02:38:26.079Z,96214
2018-05-14T02:40:53.689Z,96207
2018-05-14T02:43:20.383Z,96207
2018-05-14T02:45:47.821Z,96205
2018-05-14T02:48:14.520Z,96199
2018-05-14T02:50:41.315Z,96199
2018-05-14T02:53:07.958Z,96202
2018-05-14T02:55:35.427Z,96211
2018-05-14T02:58:02.898Z,96206
2018-05-14T03:00:29.647Z,96207
2018-05-14T03:02:56.424Z,96213
2018-05-14T03:05:23.158Z,96212
2018-05-14T03:07:49.815Z,96219
2018-05-14T03:10:16.627Z,96223
2018-05-14T03:12:43.288Z,96224
2018-05-14T03:15:09.940Z,96226
2018-05-14T03:17:37.626Z,96229
2018-05-14T03:20:05.083Z,96229
2018-05-14T03:22:32.519Z,96234
2018-05-14T03:24:59.291Z,96237
2018-05-14T03:27:26.119Z,96238
2018-05-14T03:29:53.891Z,96240
2018-05-14T03:32:21.440Z,96234
2018-05-14T03:34:48.863Z,96228
2018-05-14T03:37:15.558Z,96232
2018-05-14T03:39:42.483Z,96232
2018-05-14T03:42:09.918Z,96232
2018-05-14T03:44:36.656Z,96229
2018-05-14T03:47:04.346Z,96225
2018-05-14T03:49:31.795Z,96221
2018-05-14T03:51:58.502Z,96220
2018-05-14T03:54:25.190Z,96220
2018-05-14T03:56:52.620Z,96225
2018-05-14T03:59:38.306Z,96224
2018-05-14T04:02:32.018Z,96224
2018-05-14T04:05:17.378Z,96226
2018-05-14T04:07:44.864Z,96224
2018-05-14T04:10:11.547Z,96223
2018-05-14T04:12:38.242Z,96221
2018-05-14T04:15:05.115Z,96224
2018-05-14T04:18:15.191Z,96230
2018-05-14T04:20:41.935Z,96235
2018-05-14T04:23:09.540Z,96230
2018-05-14T04:25:36.220Z,96234
2018-05-14T04:28:02.922Z,96229
2018-05-14T04:30:29.810Z,96233
2018-05-14T04:32:56.579Z,96233
2018-05-14T04:35:23.404Z,96234
2018-05-14T04:37:50.967Z,96239
2018-05-14T04:40:18.446Z,96241
2018-05-14T04:42:45.370Z,96235
2018-05-14T04:45:12.774Z,96231
2018-05-14T04:47:39.671Z,96226
2018-05-14T04:50:07.083Z,96225
2018-05-14T04:52:33.755Z,96229
2018-05-14T04:55:01.214Z,96233
2018-05-14T04:57:27.865Z,96238
2018-05-14T04:59:54.631Z,96239
2018-05-14T05:02:21.600Z,96234
2018-05-14T05:04:48.283Z,96229
2018-05-14T05:07:15.738Z,96220
2018-05-14T05:09:42.418Z,96218
2018-05-14T05:12:09.645Z,96219
2018-05-14T05:14:37.082Z,96225
2018-05-14T05:17:04.629Z,96227
2018-05-14T05:19:31.967Z,96228
2018-05-14T05:21:59.020Z,96223
2018-05-14T05:24:25.906Z,96218
2018-05-14T05:26:53.535Z,96214
2018-05-14T05:29:20.231Z,96215
2018-05-14T05:31:47.183Z,96209
2018-05-14T05:34:15.419Z,96217
2018-05-14T05:36:43.024Z,96220
2018-05-14T05:50:05.991Z,96222
2018-05-14T06:13:51.689Z,96236
2018-05-14T06:25:41.590Z,96248
2018-05-14T06:28:08.713Z,96254
2018-05-14T06:30:36.252Z,96254
2018-05-14T06:33:06.406Z,96258
2018-05-14T06:35:33.328Z,96263
2018-05-14T06:38:05.519Z,96264
2018-05-14T06:40:32.389Z,96257
2018-05-14T06:43:00.155Z,96253
2018-05-14T06:45:27.033Z,96249
2018-05-14T06:48:01.530Z,96253
2018-05-14T06:50:41.855Z,96252
2018-05-14T06:53:15.374Z,96255
2018-05-14T06:55:44.154Z,96257
2018-05-14T06:58:12.054Z,96258
2018-05-14T07:00:38.861Z,96261
2018-05-14T07:03:07.449Z,96263
2018-05-14T07:05:34.878Z,96264
2018-05-14T07:08:03.721Z,96264
2018-05-14T07:10:30.622Z,96264
2018-05-14T07:13:05.696Z,96265
2018-05-14T07:15:40.662Z,96271
2018-05-14T07:18:08.723Z,96274
2018-05-14T07:20:37.490Z,96278
2018-05-14T07:23:05.276Z,96277
2018-05-14T07:25:36.359Z,96281
2018-05-14T07:28:03.977Z,96278
2018-05-14T07:30:30.807Z,96273
2018-05-14T07:32:57.775Z,96275
2018-05-14T07:35:26.610Z,96273
2018-05-14T07:37:55.416Z,96272
2018-05-14T07:40:26.886Z,96275
2018-05-14T07:42:55.691Z,96284
2018-05-14T07:45:22.475Z,96285
2018-05-14T07:47:53.658Z,96279
2018-05-14T07:50:20.521Z,96282
2018-05-14T07:52:48.186Z,96284
2018-05-14T07:55:14.993Z,96278
2018-05-14T07:57:41.878Z,96276
2018-05-14T08:00:11.584Z,96277
2018-05-14T08:02:38.391Z,96273
2018-05-14T08:05:06.189Z,96278
2018-05-14T08:07:33.135Z,96285
2018-05-14T08:10:00.575Z,96289
2018-05-14T08:12:27.427Z,96295
2018-05-14T08:14:54.996Z,96297
2018-05-14T08:17:21.930Z,96291
2018-05-14T08:19:48.799Z,96284
2018-05-14T08:22:19.094Z,96291
2018-05-14T08:24:47.085Z,96288
2018-05-14T08:27:13.895Z,96291
2018-05-14T08:29:42.652Z,96285
2018-05-14T08:32:20.782Z,96283
2018-05-14T08:34:58.016Z,96286
2018-05-14T08:37:24.962Z,96280
2018-05-14T08:39:52.531Z,96290
2018-05-14T08:42:25.963Z,96293
2018-05-14T08:44:53.695Z,96296
2018-05-14T08:47:22.487Z,96302
2018-05-14T08:49:49.446Z,96305
2018-05-14T08:52:21.144Z,96305
2018-05-14T08:54:51.516Z,96298
2018-05-14T08:57:19.061Z,96294
2018-05-14T08:59:50.582Z,96291
2018-05-14T09:02:17.434Z,96292
2018-05-14T09:04:44.398Z,96295
2018-05-14T09:07:11.134Z,96291
2018-05-14T09:09:37.978Z,96297
2018-05-14T09:12:05.036Z,96295
2018-05-14T09:14:32.539Z,96291
2018-05-14T09:17:04.138Z,96298
2018-05-14T09:19:37.371Z,96297
2018-05-14T09:22:06.104Z,96299
2018-05-14T09:24:33.932Z,96299
2018-05-14T09:27:00.675Z,96308
2018-05-14T09:29:38.191Z,96311
2018-05-14T09:32:09.723Z,96308
2018-05-14T09:34:36.587Z,96309
2018-05-14T09:37:06.495Z,96310
2018-05-14T09:39:38.306Z,96311
2018-05-14T09:42:08.001Z,96312
2018-05-14T09:44:48.041Z,96316
2018-05-14T09:47:16.010Z,96318
2018-05-14T09:49:43.871Z,96324
2018-05-14T09:52:10.653Z,96325
2018-05-14T09:54:43.040Z,96325
2018-05-14T09:57:12.160Z,96324
2018-05-14T09:59:42.907Z,96329
2018-05-14T10:02:13.071Z,96334
2018-05-14T10:04:41.012Z,96335
2018-05-14T10:07:09.258Z,96335
2018-05-14T10:09:38.068Z,96339
2018-05-14T10:12:11.298Z,96338
2018-05-14T10:14:38.920Z,96340
2018-05-14T10:17:05.678Z,96338
2018-05-14T10:19:42.686Z,96343
2018-05-14T10:22:14.344Z,96331
2018-05-14T10:24:42.133Z,96332
2018-05-14T10:27:12.599Z,96334
2018-05-14T10:29:43.438Z,96333
2018-05-14T10:32:11.339Z,96331
2018-05-14T10:34:39.231Z,96333
2018-05-14T10:37:06.227Z,96334
2018-05-14T10:39:37.234Z,96340
2018-05-14T10:42:06.040Z,96339
2018-05-14T10:44:40.478Z,96339
2018-05-14T10:47:08.470Z,96334
2018-05-14T10:49:39.958Z,96333
2018-05-14T10:52:10.260Z,96338
2018-05-14T10:54:37.092Z,96338
2018-05-14T10:57:10.507Z,96333
2018-05-14T10:59:40.739Z,96340
2018-05-14T11:02:07.667Z,96343
2018-05-14T11:04:34.429Z,96334
2018-05-14T11:07:02.225Z,96338
2018-05-14T11:09:30.023Z,96335
2018-05-14T11:11:58.543Z,96337
2018-05-14T11:14:31.539Z,96339
2018-05-14T11:17:09.946Z,96337
2018-05-14T11:19:40.772Z,96337
2018-05-14T11:22:09.626Z,96334
2018-05-14T11:24:44.156Z,96333
2018-05-14T11:27:11.487Z,96329
2018-05-14T11:29:40.282Z,96328
2018-05-14T11:32:08.481Z,96333
2018-05-14T11:34:38.578Z,96329
2018-05-14T11:37:06.366Z,96327
2018-05-14T11:39:33.133Z,96330
2018-05-14T11:42:10.266Z,96329
2018-05-14T11:44:37.958Z,96329
2018-05-14T11:47:09.695Z,96332
2018-05-14T11:49:44.030Z,96325
2018-05-14T11:52:18.626Z,96332
2018-05-14T11:54:54.286Z,96336
2018-05-14T11:57:34.641Z,96334
2018-05-14T12:00:12.470Z,96337
2018-05-14T12:02:42.667Z,96340
2018-05-14T12:05:22.148Z,96333
2018-05-14T12:07:48.931Z,96336
2018-05-14T12:10:17.747Z,96344
2018-05-14T12:12:48.309Z,96346
2018-05-14T12:15:15.207Z,96345
2018-05-14T12:17:42.626Z,96347
2018-05-14T12:20:10.633Z,96350
2018-05-14T12:22:38.083Z,96349
2018-05-14T12:25:09.630Z,96353
2018-05-14T12:27:40.444Z,96355
2018-05-14T12:30:12.816Z,96349
2018-05-14T12:32:39.644Z,96350
2018-05-14T12:35:08.411Z,96350
2018-05-14T12:37:39.079Z,96350
2018-05-14T12:40:07.675Z,96344
2018-05-14T12:42:52.413Z,96347
2018-05-14T12:45:19.171Z,96349
2018-05-14T12:47:52.845Z,96353
2018-05-14T12:50:22.817Z,96355
2018-05-14T12:52:54.176Z,96358
2018-05-14T12:55:36.658Z,96352
2018-05-14T12:58:05.520Z,96356
2018-05-14T13:00:36.351Z,96349
2018-05-14T13:03:15.191Z,96348
2018-05-14T13:05:48.714Z,96337
2018-05-14T13:08:16.541Z,96339
2018-05-14T13:10:43.628Z,96340
2018-05-14T13:13:11.914Z,96337
2018-05-14T13:15:45.663Z,96340
2018-05-14T13:18:14.081Z,96338
2018-05-14T13:20:51.751Z,96335
2018-05-14T13:23:30.059Z,96342
2018-05-14T13:26:04.662Z,96338
2018-05-14T13:28:40.951Z,96335
2018-05-14T13:31:07.880Z,96337
2018-05-14T13:33:34.622Z,96341
2018-05-14T13:36:04.393Z,96345
2018-05-14T13:38:37.325Z,96349
2018-05-14T13:41:05.039Z,96343
2018-05-14T13:43:36.190Z,96338
2018-05-14T13:46:04.719Z,96333
2018-05-14T13:48:46.588Z,96334
2018-05-14T13:51:17.971Z,96333
2018-05-14T13:53:44.771Z,96330
2018-05-14T13:56:11.830Z,96333
2018-05-14T13:58:38.540Z,96328
2018-05-14T14:01:05.350Z,96326
2018-05-14T14:03:37.610Z,96330
2018-05-14T14:06:04.730Z,96331
2018-05-14T14:08:45.820Z,96331
2018-05-14T14:11:21.219Z,96341
2018-05-14T14:13:49.018Z,96336
2018-05-14T14:16:16.734Z,96338
2018-05-14T14:18:44.118Z,96336
2018-05-14T14:21:19.686Z,96333
2018-05-14T14:23:48.012Z,96340
2018-05-14T14:26:29.981Z,96331
2018-05-14T14:29:10.431Z,96326
2018-05-14T14:31:47.759Z,96324
2018-05-14T14:34:15.367Z,96328
2018-05-14T14:36:43.110Z,96330
2018-05-14T14:39:20.715Z,96336
2018-05-14T14:42:06.187Z,96330
2018-05-14T14:44:41.049Z,96331
2018-05-14T14:47:07.754Z,96331
2018-05-14T14:49:43.315Z,96338
2018-05-14T14:52:12.205Z,96337
2018-05-14T14:54:39.070Z,96340
2018-05-14T14:57:07.514Z,96338
2018-05-14T14:59:36.374Z,96346
2018-05-14T15:02:03.246Z,96335
2018-05-14T15:04:32.054Z,96335
2018-05-14T15:07:11.479Z,96345
2018-05-14T15:09:38.257Z,96344
2018-05-14T15:12:05.035Z,96347
2018-05-14T15:14:31.762Z,96346
2018-05-14T15:16:58.629Z,96341
2018-05-14T15:19:26.767Z,96339
2018-05-14T15:21:55.503Z,96336
2018-05-14T15:24:23.979Z,96336
2018-05-14T15:26:51.660Z,96342
2018-05-14T15:29:18.387Z,96330
2018-05-14T15:31:46.363Z,96338
2018-05-14T15:34:14.092Z,96337
2018-05-14T15:36:42.040Z,96339
2018-05-14T15:39:08.903Z,96329
2018-05-14T15:41:56.562Z,96333
2018-05-14T15:44:39.598Z,96322
2018-05-14T15:47:19.222Z,96330
2018-05-14T15:49:50.408Z,96327
2018-05-14T15:52:23.857Z,96324
2018-05-14T15:54:53.813Z,96323
2018-05-14T15:57:22.570Z,96326
2018-05-14T15:59:54.394Z,96317
2018-05-14T16:02:25.760Z,96325
2018-05-14T16:04:56.385Z,96322
2018-05-14T16:07:26.150Z,96322
2018-05-14T16:09:55.891Z,96320
2018-05-14T16:12:28.669Z,96313
2018-05-14T16:15:07.582Z,96312
2018-05-14T16:17:44.372Z,96317
2018-05-14T16:20:12.778Z,96311
2018-05-14T16:22:45.254Z,96307
2018-05-14T16:25:22.442Z,96307
2018-05-14T16:27:52.466Z,96308
2018-05-14T16:30:30.097Z,96310
2018-05-14T16:32:58.842Z,96310
2018-05-14T16:35:32.242Z,96308
2018-05-14T16:38:04.438Z,96307
2018-05-14T16:40:32.170Z,96308
2018-05-14T16:43:01.735Z,96307
2018-05-14T16:45:29.431Z,96305
2018-05-14T16:47:56.958Z,96301
2018-05-14T16:50:26.063Z,96307
2018-05-14T16:52:54.229Z,96306
2018-05-14T16:55:21.115Z,96314
2018-05-14T16:58:09.704Z,96303
2018-05-14T17:00:36.591Z,96317
2018-05-14T17:03:03.415Z,96310
2018-05-14T17:05:33.584Z,96318
2018-05-14T17:08:03.312Z,96314
2018-05-14T17:10:38.924Z,96316
2018-05-14T17:13:07.647Z,96319
2018-05-14T17:15:35.308Z,96325
2018-05-14T17:18:02.075Z,96328
2018-05-14T17:20:28.891Z,96328
2018-05-14T17:22:55.990Z,96326
2018-05-14T17:25:24.791Z,96332
2018-05-14T17:27:51.772Z,96330
2018-05-14T17:30:19.333Z,96329
2018-05-14T17:32:52.055Z,96331
2018-05-14T17:35:19.702Z,96335
2018-05-14T17:37:47.645Z,96327
2018-05-14T17:40:20.679Z,96326
2018-05-14T17:42:48.560Z,96329
2018-05-14T17:45:15.472Z,96329
2018-05-14T17:47:42.423Z,96324
2018-05-14T17:50:11.515Z,96310
2018-05-14T17:52:48.665Z,96308
2018-05-14T17:55:23.536Z,96305
2018-05-14T17:57:57.230Z,96307
2018-05-14T18:00:29.556Z,96307
2018-05-14T18:02:58.142Z,96310
2018-05-14T18:05:32.927Z,96311
2018-05-14T18:08:00.756Z,96320
2018-05-14T18:10:29.037Z,96315
2018-05-14T18:13:14.218Z,96321
2018-05-14T18:15:49.014Z,96325
2018-05-14T18:18:16.841Z,96320
2018-05-14T18:20:47.322Z,96325
2018-05-14T18:23:26.594Z,96326
2018-05-14T18:29:06.069Z,96330
2018-05-14T18:31:49.171Z,96336
2018-05-14T18:37:32.991Z,96336
2018-05-14T18:40:02.135Z,96342
2018-05-14T18:42:31.767Z,96350
2018-05-14T18:45:02.207Z,96349
2018-05-14T18:47:42.385Z,96355
2018-05-14T18:50:27.971Z,96363
2018-05-14T18:53:05.363Z,96362
2018-05-14T18:55:33.560Z,96357
2018-05-14T18:58:19.447Z,96351
2018-05-14T19:00:57.687Z,96349
2018-05-14T19:03:27.999Z,96354
2018-05-14T19:06:00.668Z,96371
2018-05-14T19:08:30.890Z,96385
2018-05-14T19:11:09.951Z,96412
2018-05-14T19:13:40.138Z,96431
2018-05-14T19:16:14.015Z,96413
2018-05-14T19:18:47.017Z,96410
2018-05-14T19:21:15.687Z,96418
2018-05-14T19:23:53.526Z,96426
2018-05-14T19:26:34.918Z,96423
2018-05-14T19:29:10.159Z,96420
2018-05-14T19:31:38.388Z,96425
2018-05-14T19:34:17.736Z,96426
2018-05-14T19:36:45.913Z,96422
2018-05-14T19:42:16.915Z,96435
2018-05-14T19:44:45.150Z,96447
2018-05-14T19:47:17.082Z,96460
2018-05-14T19:49:48.315Z,96468
2018-05-14T19:52:17.656Z,96474
2018-05-14T19:54:47.906Z,96490
2018-05-14T19:57:17.401Z,96500
2018-05-14T19:59:58.118Z,96506
2018-05-14T20:02:39.468Z,96484
2018-05-14T20:05:10.934Z,96465
2018-05-14T20:07:42.426Z,96432
2018-05-14T20:10:17.903Z,96447
2018-05-14T20:12:46.331Z,96461
2018-05-14T20:15:20.340Z,96453
2018-05-14T20:17:52.243Z,96442
2018-05-14T20:20:27.536Z,96444
2018-05-14T20:22:57.289Z,96433
2018-05-14T20:25:26.988Z,96436
2018-05-14T20:27:58.448Z,96437
2018-05-14T20:30:37.649Z,96437
2018-05-14T20:33:16.547Z,96428
2018-05-14T20:35:44.783Z,96428
2018-05-14T20:38:16.210Z,96419
2018-05-14T20:40:45.239Z,96417
2018-05-14T20:43:20.503Z,96408
2018-05-14T20:45:53.853Z,96409
2018-05-14T20:48:29.965Z,96408
2018-05-14T20:50:58.374Z,96412
2018-05-14T20:53:33.509Z,96413
2018-05-14T20:56:12.371Z,96404
2018-05-14T20:58:43.389Z,96398
2018-05-14T21:01:18.622Z,96392
2018-05-14T21:03:47.756Z,96394
2018-05-14T21:06:16.086Z,96398
2018-05-14T21:08:44.495Z,96407
2018-05-14T21:11:19.317Z,96413
2018-05-14T21:13:49.557Z,96421
2018-05-14T21:16:18.775Z,96421
2018-05-14T21:18:49.127Z,96430
2018-05-14T21:21:18.437Z,96431
2018-05-14T21:23:54.488Z,96436
2018-05-14T21:26:22.789Z,96432
2018-05-14T21:29:02.174Z,96443
2018-05-14T21:31:32.439Z,96442
2018-05-14T21:34:04.861Z,96450
2018-05-14T21:36:42.219Z,96459
2018-05-14T21:39:16.266Z,96468
2018-05-14T21:41:45.649Z,96489
2018-05-14T21:44:15.648Z,96488
2018-05-14T21:46:48.053Z,96478
2018-05-14T21:49:16.558Z,96475
2018-05-14T21:52:01.974Z,96465
2018-05-14T21:54:35.283Z,96467
2018-05-14T21:57:08.372Z,96466
2018-05-14T21:59:37.569Z,96459
2018-05-14T22:02:05.927Z,96463
2018-05-14T22:04:36.953Z,96471
2018-05-14T22:07:05.330Z,96479
2018-05-14T22:09:33.603Z,96485
2018-05-14T22:12:01.983Z,96497
2018-05-14T22:14:38.258Z,96497
2018-05-14T22:17:09.499Z,96493
2018-05-14T22:19:38.438Z,96491
2018-05-14T22:22:12.648Z,96487
2018-05-14T22:24:40.894Z,96498
2018-05-14T22:27:10.930Z,96488
2018-05-14T22:29:41.258Z,96496
2018-05-14T22:32:16.075Z,96480
2018-05-14T22:34:50.006Z,96461
2018-05-14T22:37:18.699Z,96460
2018-05-14T22:39:46.837Z,96462
2018-05-14T22:42:22.990Z,96461
2018-05-14T22:44:56.707Z,96467
2018-05-14T22:47:27.331Z,96461
2018-05-14T22:49:56.555Z,96462
2018-05-14T22:52:25.958Z,96455
2018-05-14T22:54:57.640Z,96452
2018-05-14T22:57:28.550Z,96436
2018-05-14T23:00:22.195Z,96436
2018-05-14T23:03:00.714Z,96444
2018-05-14T23:05:30.121Z,96453
2018-05-14T23:10:37.933Z,96448
2018-05-14T23:13:19.043Z,96450
2018-05-14T23:15:51.792Z,96445
2018-05-14T23:18:20.120Z,96449
2018-05-14T23:21:00.897Z,96447
2018-05-14T23:23:33.995Z,96453
2018-05-14T23:26:17.882Z,96453
2018-05-14T23:28:47.352Z,96444
2018-05-14T23:31:19.722Z,96444
2018-05-14T23:33:48.156Z,96441
2018-05-14T23:36:19.306Z,96441
2018-05-14T23:38:50.319Z,96442
2018-05-14T23:41:20.793Z,96440
2018-05-14T23:43:51.320Z,96440
2018-05-14T23:46:21.670Z,96438
2018-05-14T23:48:51.095Z,96445
2018-05-14T23:51:23.931Z,96445
2018-05-14T23:53:53.771Z,96455
2018-05-14T23:56:23.761Z,96457
2018-05-14T23:58:52.055Z,96461
